Norrland — C4KF2 — position and weather

sailwx.info

Track history (hours):
 
Tides and Currents Weather Stations Pressure Air Temp Water Temp Dewpoint Dewpoint Depression Visibility Wind Speed Wind Dir Waves Ship Positions

Norrland

Last reported at 2018-May-25 10:02 UTC. Time now 2018-May-26 07:44 UTC.
Position N 60°22' E 019°01'.

Length 119 m; draft 7 m.

Type: Cargo ship. MMSI: 212521000.

Date/timePositionNaut miles runAvg speedWind from/ knotsBaromVisibWave heightAir tempDewpointWater temp
2018-May-25 10:02N 60°22' E 019°01'010.8
2018-May-25 09:59N 60°21' E 019°01'510.8
2018-May-25 09:30N 60°16' E 019°02'510.5
2018-May-25 09:00N 60°11' E 019°06'510.7
2018-May-25 08:30N 60°07' E 019°13'510.8
2018-May-25 08:00N 60°03' E 019°20'510.9
2018-May-25 07:30N 59°59' E 019°27'511.0
2018-May-25 07:00N 59°55' E 019°34'510.8
2018-May-25 06:30N 59°50' E 019°41'610.8
2018-May-25 05:59N 59°46' E 019°48'  
2018-May-22 10:26N 58°57' E 020°37'410.6
2018-May-22 10:00N 59°01' E 020°33'2410.7
2018-May-22 07:45N 59°22' E 020°12'310.7
2018-May-22 07:30N 59°25' E 020°10'510.9
2018-May-22 07:00N 59°30' E 020°06'510.5
2018-May-22 06:30N 59°35' E 020°02'510.7
2018-May-22 06:00N 59°38' E 019°54'610.6
2018-May-22 05:28N 59°43' E 019°47'510.6
2018-May-22 05:00N 59°46' E 019°41'510.7
2018-May-22 04:30N 59°51' E 019°34'510.6
2018-May-22 04:00N 59°55' E 019°28'510.6
2018-May-22 03:30N 59°59' E 019°21'510.4
2018-May-22 03:00N 60°03' E 019°14'510.5
2018-May-22 02:30N 60°07' E 019°07'510.3
2018-May-22 02:01N 60°11' E 019°01'5 9.9
2018-May-22 01:30N 60°16' E 019°01'510.2
2018-May-22 01:00N 60°21' E 018°60'5 9.9
2018-May-22 00:30N 60°26' E 018°58'5 9.7
2018-May-22 00:00N 60°30' E 018°55'510.2
2018-May-21 23:30N 60°33' E 018°46'510.4
2018-May-21 23:00N 60°35' E 018°37'510.3
2018-May-21 22:30N 60°38' E 018°28'510.2
2018-May-21 21:59N 60°40' E 018°18'510.2
2018-May-21 21:30N 60°41' E 018°08'1 0.0
2018-May-20 05:24N 60°41' E 018°10'5 8.5
2018-May-20 04:50N 60°40' E 018°19'3 8.4
2018-May-20 04:30N 60°39' E 018°25'15 8.6
2018-May-20 02:42N 60°32' E 018°53'210.7
2018-May-20 02:30N 60°31' E 018°57'711.3
2018-May-20 01:52N 60°24' E 019°01'613.3
2018-May-20 01:26N 60°19' E 019°01'613.1
2018-May-20 01:00N 60°13' E 019°04'612.6
2018-May-20 00:30N 60°08' E 019°11'612.7
2018-May-20 00:00N 60°03' E 019°19'612.6
2018-May-19 23:30N 59°58' E 019°27'712.8
2018-May-19 22:56N 59°53' E 019°36'612.7
2018-May-19 22:30N 59°48' E 019°43'  
Track history (hours):
 
Tides and Currents Weather Stations Pressure Air Temp Water Temp Dewpoint Dewpoint Depression Visibility Wind Speed Wind Dir Waves Ship Positions

Norrland

Last reported at 2018-May-25 10:02 UTC. Time now 2018-May-26 07:44 UTC.
Position N 60°22' E 019°01'.

Length 119 m; draft 7 m.

Type: Cargo ship. MMSI: 212521000.

Date/timePositionNaut miles runAvg speedWind from/ knotsBaromVisibWave heightAir tempDewpointWater temp
2018-May-25 10:02N 60°22' E 019°01'010.8
2018-May-25 09:59N 60°21' E 019°01'510.8
2018-May-25 09:30N 60°16' E 019°02'510.5
2018-May-25 09:00N 60°11' E 019°06'510.7
2018-May-25 08:30N 60°07' E 019°13'510.8
2018-May-25 08:00N 60°03' E 019°20'510.9
2018-May-25 07:30N 59°59' E 019°27'511.0
2018-May-25 07:00N 59°55' E 019°34'510.8
2018-May-25 06:30N 59°50' E 019°41'610.8
2018-May-25 05:59N 59°46' E 019°48'  
2018-May-22 10:26N 58°57' E 020°37'410.6
2018-May-22 10:00N 59°01' E 020°33'2410.7
2018-May-22 07:45N 59°22' E 020°12'310.7
2018-May-22 07:30N 59°25' E 020°10'510.9
2018-May-22 07:00N 59°30' E 020°06'510.5
2018-May-22 06:30N 59°35' E 020°02'510.7
2018-May-22 06:00N 59°38' E 019°54'610.6
2018-May-22 05:28N 59°43' E 019°47'510.6
2018-May-22 05:00N 59°46' E 019°41'510.7
2018-May-22 04:30N 59°51' E 019°34'510.6
2018-May-22 04:00N 59°55' E 019°28'510.6
2018-May-22 03:30N 59°59' E 019°21'510.4
2018-May-22 03:00N 60°03' E 019°14'510.5
2018-May-22 02:30N 60°07' E 019°07'510.3
2018-May-22 02:01N 60°11' E 019°01'5 9.9
2018-May-22 01:30N 60°16' E 019°01'510.2
2018-May-22 01:00N 60°21' E 018°60'5 9.9
2018-May-22 00:30N 60°26' E 018°58'5 9.7
2018-May-22 00:00N 60°30' E 018°55'510.2
2018-May-21 23:30N 60°33' E 018°46'510.4
2018-May-21 23:00N 60°35' E 018°37'510.3
2018-May-21 22:30N 60°38' E 018°28'510.2
2018-May-21 21:59N 60°40' E 018°18'510.2
2018-May-21 21:30N 60°41' E 018°08'1 0.0
2018-May-20 05:24N 60°41' E 018°10'5 8.5
2018-May-20 04:50N 60°40' E 018°19'3 8.4
2018-May-20 04:30N 60°39' E 018°25'15 8.6
2018-May-20 02:42N 60°32' E 018°53'210.7
2018-May-20 02:30N 60°31' E 018°57'711.3
2018-May-20 01:52N 60°24' E 019°01'613.3
2018-May-20 01:26N 60°19' E 019°01'613.1
2018-May-20 01:00N 60°13' E 019°04'612.6
2018-May-20 00:30N 60°08' E 019°11'612.7
2018-May-20 00:00N 60°03' E 019°19'612.6
2018-May-19 23:30N 59°58' E 019°27'712.8
2018-May-19 22:56N 59°53' E 019°36'612.7
2018-May-19 22:30N 59°48' E 019°43'  

Dump ship's entire track history